Time;durP1;ratioP1;P1;durP2;ratioP2;P2;SDS_P1;SDS_P2;PMS_P1;PMS_P2;Temp;Humidity;BMP_temperature;BMP_pressure;BME280_temperature;BME280_humidity;BME280_pressure;Samples;Min_cycle;Max_cycle;Signal;HPM_P1;HPM_P2
2023/06/15 00:00:48;;;;;;;20.10;17.80;;;;;;;11.15;100.00;98966.73;109684;1249;63824;-79
2023/06/15 00:03:35;;;;;;;21.00;18.80;;;;;;;11.15;100.00;98964.09;109690;1250;58962;-79
2023/06/15 00:06:01;;;;;;;22.30;20.00;;;;;;;11.14;100.00;98964.67;109764;1250;59001;-78
2023/06/15 00:08:28;;;;;;;23.40;21.00;;;;;;;11.15;100.00;98967.31;109746;1250;66092;-79
2023/06/15 00:10:54;;;;;;;24.00;20.80;;;;;;;11.16;100.00;98966.35;109753;1250;59039;-78
2023/06/15 00:13:21;;;;;;;23.90;21.40;;;;;;;11.18;100.00;98965.64;109722;1248;64144;-75
2023/06/15 00:15:47;;;;;;;24.80;22.20;;;;;;;11.23;100.00;98967.97;109710;1250;58980;-77
2023/06/15 00:18:14;;;;;;;23.90;21.40;;;;;;;11.27;100.00;98967.69;109723;1253;59298;-79
2023/06/15 00:20:40;;;;;;;24.30;21.30;;;;;;;11.32;100.00;98968.94;109525;1250;59726;-77
2023/06/15 00:23:08;;;;;;;24.30;21.80;;;;;;;11.38;100.00;98970.64;109763;1250;59351;-79
2023/06/15 00:25:35;;;;;;;28.00;24.20;;;;;;;11.44;100.00;98962.91;109509;1250;63793;-78
2023/06/15 00:28:02;;;;;;;27.50;23.70;;;;;;;11.53;100.00;98959.80;109741;1250;59079;-78
2023/06/15 00:30:28;;;;;;;28.40;24.10;;;;;;;11.61;100.00;98957.61;109763;1250;59833;-79
2023/06/15 00:32:55;;;;;;;28.90;25.90;;;;;;;11.69;100.00;98956.35;109781;1252;64645;-78
2023/06/15 00:35:21;;;;;;;28.90;24.80;;;;;;;11.75;100.00;98959.67;109776;1249;60302;-77
2023/06/15 00:37:48;;;;;;;29.00;25.90;;;;;;;11.79;100.00;98959.88;109743;1251;64118;-79
2023/06/15 00:40:15;;;;;;;28.40;24.10;;;;;;;11.83;100.00;98958.02;109509;1250;59232;-80
2023/06/15 00:42:41;;;;;;;28.80;25.80;;;;;;;11.87;100.00;98958.64;109773;1249;59034;-80
2023/06/15 00:45:08;;;;;;;27.60;24.70;;;;;;;11.91;100.00;98960.34;109713;1250;64716;-79
2023/06/15 00:47:38;;;;;;;25.10;22.40;;;;;;;11.95;100.00;98958.08;109528;1252;60025;-80
2023/06/15 00:50:14;;;;;;;23.90;21.50;;;;;;;11.97;100.00;98959.19;109716;1251;64148;-79
2023/06/15 00:52:41;;;;;;;22.90;20.50;;;;;;;11.98;100.00;98954.77;109688;1249;58908;-78
2023/06/15 00:55:12;;;;;;;24.10;21.10;;;;;;;11.99;100.00;98955.63;109717;1251;58956;-80
2023/06/15 00:57:44;;;;;;;;;;;;;;;12.00;100.00;98962.30;109767;1250;66111;-79
2023/06/15 01:00:15;;;;;;;23.10;20.80;;;;;;;12.02;100.00;98963.44;109800;1248;59927;-80
2023/06/15 01:02:42;;;;;;;26.40;22.40;;;;;;;12.05;100.00;98965.69;109745;1250;63724;-78
2023/06/15 01:05:16;;;;;;;26.00;23.30;;;;;;;12.08;100.00;98965.45;109733;1252;59244;-80
2023/06/15 01:07:47;;;;;;;28.40;24.40;;;;;;;12.11;100.00;98965.09;109753;1251;59004;-78
2023/06/15 01:10:19;;;;;;;28.30;25.10;;;;;;;12.13;100.00;98964.03;109774;1251;66690;-78
2023/06/15 01:12:50;;;;;;;27.30;24.30;;;;;;;12.16;100.00;98957.23;109771;1250;60115;-79
2023/06/15 01:15:17;;;;;;;26.30;23.40;;;;;;;12.20;100.00;98957.15;109788;1250;64163;-79
2023/06/15 01:17:45;;;;;;;27.50;24.30;;;;;;;12.21;100.00;98954.87;109716;1249;58936;-80
2023/06/15 01:20:17;;;;;;;26.00;23.10;;;;;;;12.23;100.00;98955.59;109753;1250;58995;-79
2023/06/15 01:22:57;;;;;;;25.60;23.00;;;;;;;12.24;100.00;98956.45;109792;1250;66120;-80
2023/06/15 01:25:39;;;;;;;25.90;23.10;;;;;;;12.23;100.00;98956.17;109806;1251;60098;-80
2023/06/15 01:28:10;;;;;;;25.70;22.60;;;;;;;12.24;100.00;98956.46;109772;1251;63724;-80
2023/06/15 01:30:44;;;;;;;24.70;22.40;;;;;;;12.27;100.00;98952.13;109763;1249;58971;-78
2023/06/15 01:33:11;;;;;;;24.90;22.30;;;;;;;12.30;100.00;98950.80;109722;1251;59383;-79
2023/06/15 01:35:38;;;;;;;25.70;22.90;;;;;;;12.33;100.00;98954.20;109792;1250;66078;-79
2023/06/15 01:38:05;;;;;;;25.30;22.30;;;;;;;12.35;100.00;98953.87;109746;1253;60298;-79
2023/06/15 01:40:36;;;;;;;28.10;25.20;;;;;;;12.37;100.00;98951.25;109478;1250;63779;-79
2023/06/15 01:43:06;;;;;;;29.70;26.60;;;;;;;12.39;100.00;98951.82;109814;1250;59011;-79
2023/06/15 01:45:35;;;;;;;26.80;24.00;;;;;;;12.40;100.00;98956.84;109762;1249;59772;-79
2023/06/15 01:48:02;;;;;;;26.30;23.60;;;;;;;12.41;100.00;98960.86;109748;1249;66092;-78
2023/06/15 01:50:31;;;;;;;27.90;24.70;;;;;;;12.43;100.00;98963.10;109792;1252;59054;-80
2023/06/15 01:52:57;;;;;;;27.60;24.60;;;;;;;12.44;100.00;98962.78;109469;1251;135169;-79
2023/06/15 01:55:25;;;;;;;28.00;25.10;;;;;;;12.46;100.00;98959.27;109748;1251;58925;-79
2023/06/15 01:57:53;;;;;;;28.80;24.80;;;;;;;12.47;100.00;98959.16;109810;1252;58959;-79
2023/06/15 02:00:32;;;;;;;26.60;24.00;;;;;;;12.48;100.00;98956.96;109776;1250;65715;-79
2023/06/15 02:02:59;;;;;;;25.40;23.00;;;;;;;12.48;100.00;98958.19;109774;1251;60109;-79
2023/06/15 02:05:26;;;;;;;25.90;23.40;;;;;;;12.49;100.00;98954.95;109474;1250;64485;-80
2023/06/15 02:07:52;;;;;;;25.50;22.80;;;;;;;12.51;100.00;98954.25;109791;1250;58921;-78
2023/06/15 02:10:19;;;;;;;25.30;22.90;;;;;;;12.54;100.00;98954.27;109759;1250;59121;-79
2023/06/15 02:12:46;;;;;;;25.60;23.00;;;;;;;12.54;100.00;98948.36;109439;1251;66026;-79
2023/06/15 02:15:13;;;;;;;26.80;24.20;;;;;;;12.54;100.00;98945.63;109559;1249;59621;-76
2023/06/15 02:17:39;;;;;;;26.00;23.30;;;;;;;12.52;100.00;98943.98;109804;1250;64110;-80
2023/06/15 02:20:08;;;;;;;27.30;24.20;;;;;;;12.48;100.00;98951.25;109728;1250;59034;-79
2023/06/15 02:22:34;;;;;;;27.90;24.90;;;;;;;12.43;100.00;98953.61;109443;1251;59071;-78
2023/06/15 02:25:01;;;;;;;28.90;25.70;;;;;;;12.39;100.00;98954.42;109838;1251;64552;-80
2023/06/15 02:27:28;;;;;;;28.10;25.00;;;;;;;12.37;100.00;98956.02;109793;1251;59001;-79
2023/06/15 02:29:55;;;;;;;31.10;27.90;;;;;;;12.36;100.00;98955.73;109759;1251;64122;-80
2023/06/15 02:32:36;;;;;;;33.70;27.10;;;;;;;12.38;100.00;98950.83;109777;1250;58946;-80
2023/06/15 02:35:12;;;;;;;32.40;29.00;;;;;;;12.35;100.00;98955.28;109803;1249;58995;-80
2023/06/15 02:37:40;;;;;;;30.00;26.90;;;;;;;12.27;100.00;98959.23;109783;1251;65754;-80
2023/06/15 02:40:08;;;;;;;30.50;26.60;;;;;;;12.22;100.00;98959.27;109818;1250;59023;-79
2023/06/15 02:42:35;;;;;;;29.40;26.40;;;;;;;12.19;100.00;98961.08;109505;1247;64088;-79
2023/06/15 02:45:03;;;;;;;29.90;26.70;;;;;;;12.16;100.00;98967.69;109863;1248;58901;-79
2023/06/15 02:47:30;;;;;;;32.70;26.90;;;;;;;12.16;100.00;98968.63;109904;1247;59057;-77
2023/06/15 02:49:59;;;;;;;35.80;29.00;;;;;;;12.16;100.00;98970.05;109907;1247;66055;-80
2023/06/15 02:52:26;;;;;;;30.60;27.40;;;;;;;12.17;100.00;98970.67;109921;1247;59551;-78
2023/06/15 02:54:53;;;;;;;35.70;29.60;;;;;;;12.21;100.00;98967.02;109839;1247;62893;-79
2023/06/15 02:57:20;;;;;;;30.10;26.50;;;;;;;12.23;100.00;98967.52;109883;1247;58941;-80
2023/06/15 02:59:49;;;;;;;34.00;28.60;;;;;;;12.26;100.00;98965.38;109928;1247;59309;-79
2023/06/15 03:02:16;;;;;;;33.70;27.90;;;;;;;12.29;100.00;98964.45;109895;1247;64488;-80
2023/06/15 03:04:47;;;;;;;31.30;28.00;;;;;;;12.29;100.00;98966.02;109918;1247;60218;-80
2023/06/15 03:07:16;;;;;;;37.60;29.60;;;;;;;12.31;100.00;98962.34;109860;1247;63003;-81
2023/06/15 03:09:46;;;;;;;35.30;28.30;;;;;;;12.34;100.00;98959.63;109895;1247;58950;-78
2023/06/15 03:12:13;;;;;;;35.00;27.90;;;;;;;12.35;100.00;98957.92;109703;1248;59109;-79
2023/06/15 03:14:44;;;;;;;33.10;28.90;;;;;;;12.37;100.00;98952.48;109887;1247;64555;-80
2023/06/15 03:17:12;;;;;;;32.60;28.20;;;;;;;12.40;100.00;98952.94;109849;1247;60241;-77
2023/06/15 03:19:40;;;;;;;34.00;27.50;;;;;;;12.44;100.00;98952.81;109893;1247;62900;-80
2023/06/15 03:22:07;;;;;;;33.40;28.80;;;;;;;12.47;100.00;98958.80;109909;1247;59698;-80
2023/06/15 03:24:34;;;;;;;32.90;28.20;;;;;;;12.49;100.00;98961.14;109873;1247;58934;-80
2023/06/15 03:27:03;;;;;;;30.90;27.60;;;;;;;12.52;100.00;98968.78;109600;1247;65988;-78
2023/06/15 03:29:31;;;;;;;31.20;27.80;;;;;;;12.55;100.00;98974.99;109875;1247;59856;-77
2023/06/15 03:31:58;;;;;;;32.30;28.50;;;;;;;12.58;100.00;98976.73;109912;1247;64014;-78
2023/06/15 03:34:25;;;;;;;33.80;29.20;;;;;;;12.60;100.00;98979.61;109920;1247;58939;-77
2023/06/15 03:36:52;;;;;;;43.10;30.50;;;;;;;12.61;100.00;98980.58;109905;1247;58920;-78
2023/06/15 03:39:19;;;;;;;41.80;30.00;;;;;;;12.64;100.00;98979.87;109886;1247;64890;-79
2023/06/15 03:41:45;;;;;;;39.60;28.90;;;;;;;12.66;100.00;98983.45;109899;1247;59257;-79
2023/06/15 03:44:12;;;;;;;45.00;31.10;;;;;;;12.66;100.00;98982.84;109865;1247;59056;-78
2023/06/15 03:46:38;;;;;;;49.20;31.90;;;;;;;12.69;100.00;98986.20;109880;1247;58978;-79
2023/06/15 03:49:05;;;;;;;41.00;29.90;;;;;;;12.71;100.00;98984.85;109880;1247;59090;-78
2023/06/15 03:51:32;;;;;;;47.10;31.40;;;;;;;12.74;100.00;98989.79;109910;1247;64502;-78
2023/06/15 03:53:59;;;;;;;44.40;31.20;;;;;;;12.78;100.00;98988.59;109520;1247;59049;-78
2023/06/15 03:56:26;;;;;;;50.70;32.60;;;;;;;12.83;100.00;98993.39;109869;1247;63747;-79
2023/06/15 03:58:53;;;;;;;54.10;32.50;;;;;;;12.86;100.00;98993.50;109829;1247;58956;-79
2023/06/15 04:01:19;;;;;;;51.80;31.90;;;;;;;12.89;100.00;98993.11;109654;1247;59164;-79
2023/06/15 04:03:46;;;;;;;59.80;33.70;;;;;;;12.91;100.00;98995.75;109937;1247;58995;-79
2023/06/15 04:06:12;;;;;;;58.00;34.80;;;;;;;12.92;100.00;98996.74;109877;1247;59020;-81
2023/06/15 04:08:39;;;;;;;60.60;33.60;;;;;;;12.94;100.00;98998.89;109862;1247;59407;-79
2023/06/15 04:11:06;;;;;;;62.70;35.00;;;;;;;12.96;100.00;99001.44;109916;1247;58932;-78
2023/06/15 04:13:32;;;;;;;70.20;33.90;;;;;;;12.99;100.00;99001.61;109869;1247;58860;-78
2023/06/15 04:15:59;;;;;;;65.00;34.30;;;;;;;13.01;100.00;99003.39;109907;1247;66114;-79
2023/06/15 04:18:26;;;;;;;66.40;34.20;;;;;;;13.02;100.00;99002.78;109927;1247;59366;-78
2023/06/15 04:20:52;;;;;;;65.80;35.60;;;;;;;13.05;100.00;99002.59;109871;1247;63862;-77
2023/06/15 04:23:20;;;;;;;64.20;32.70;;;;;;;13.06;100.00;99001.41;109862;1247;58999;-79
2023/06/15 04:25:47;;;;;;;70.60;35.10;;;;;;;13.09;100.00;99001.15;109888;1247;59071;-79
2023/06/15 04:28:16;;;;;;;63.00;33.60;;;;;;;13.13;100.00;98997.29;109922;1247;66169;-78
2023/06/15 04:30:46;;;;;;;70.40;35.80;;;;;;;13.16;100.00;98999.20;109923;1247;60413;-79
2023/06/15 04:33:13;;;;;;;70.80;37.20;;;;;;;13.19;100.00;98996.30;109902;1247;62924;-76
2023/06/15 04:35:40;;;;;;;67.90;36.70;;;;;;;13.23;100.00;98995.68;109916;1247;58970;-78
2023/06/15 04:38:07;;;;;;;70.90;37.30;;;;;;;13.30;100.00;98993.14;109889;1247;59146;-79
2023/06/15 04:40:34;;;;;;;74.50;38.80;;;;;;;13.39;100.00;98991.90;109892;1247;65372;-77
2023/06/15 04:43:02;;;;;;;69.70;38.30;;;;;;;13.48;100.00;98994.22;109881;1247;58949;-79
2023/06/15 04:45:29;;;;;;;76.70;40.20;;;;;;;13.56;100.00;98994.52;109864;1247;62494;-80
2023/06/15 04:47:56;;;;;;;73.20;40.50;;;;;;;13.68;100.00;98990.32;109925;1247;61120;-81
2023/06/15 04:50:23;;;;;;;69.40;38.70;;;;;;;13.83;100.00;98991.48;110015;1247;59048;-77
2023/06/15 04:52:50;;;;;;;72.00;40.30;;;;;;;13.92;100.00;98992.04;109930;1247;64581;-79
2023/06/15 04:55:17;;;;;;;70.40;39.20;;;;;;;14.08;100.00;98989.62;109866;1247;59786;-79
2023/06/15 04:57:44;;;;;;;60.60;38.40;;;;;;;14.34;100.00;98987.11;109844;1247;64053;-80
2023/06/15 05:00:13;;;;;;;62.80;37.90;;;;;;;14.51;100.00;98993.96;109894;1247;59290;-79
2023/06/15 05:02:40;;;;;;;54.90;35.10;;;;;;;14.60;100.00;98998.09;109905;1247;58968;-79
2023/06/15 05:05:06;;;;;;;52.80;36.10;;;;;;;14.61;100.00;98998.31;109597;1247;66778;-80
2023/06/15 05:07:33;;;;;;;56.00;36.20;;;;;;;14.63;100.00;98996.02;109895;1247;60063;-78
2023/06/15 05:10:00;;;;;;;40.80;31.70;;;;;;;14.72;100.00;98996.85;109517;1247;63824;-79
2023/06/15 05:12:27;;;;;;;42.80;32.50;;;;;;;14.77;100.00;98999.83;109888;1247;58994;-79
2023/06/15 05:14:53;;;;;;;48.10;33.70;;;;;;;14.84;100.00;99001.18;109916;1247;58865;-79
2023/06/15 05:17:20;;;;;;;43.90;32.90;;;;;;;14.90;100.00;99001.23;109852;1247;59684;-79
2023/06/15 05:19:47;;;;;;;41.70;30.80;;;;;;;14.94;100.00;98999.67;109961;1247;60128;-76
2023/06/15 05:22:14;;;;;;;34.40;29.10;;;;;;;14.94;100.00;98998.73;110021;1247;62849;-79
2023/06/15 05:24:40;;;;;;;39.70;30.50;;;;;;;14.92;100.00;99003.02;109917;1247;59201;-78
2023/06/15 05:27:08;;;;;;;38.40;28.60;;;;;;;14.90;100.00;99003.74;109950;1247;59036;-79
2023/06/15 05:29:36;;;;;;;29.90;24.10;;;;;;;14.87;100.00;99011.53;109973;1247;66031;-79
2023/06/15 05:32:03;;;;;;;31.70;24.50;;;;;;;14.81;100.00;99014.69;109989;1248;59070;-77
2023/06/15 05:34:29;;;;;;;33.60;26.00;;;;;;;14.72;100.00;99012.95;109998;1247;62601;-79
2023/06/15 05:36:56;;;;;;;30.00;23.10;;;;;;;14.67;100.00;99010.85;109893;1247;58983;-80
2023/06/15 05:39:24;;;;;;;25.10;21.00;;;;;;;14.73;100.00;99011.28;109967;1247;58883;-79
2023/06/15 05:41:51;;;;;;;25.60;20.70;;;;;;;14.86;100.00;99014.66;109890;1247;64526;-79
2023/06/15 05:44:17;;;;;;;26.10;22.80;;;;;;;15.03;100.00;99015.16;109916;1247;59940;-79
2023/06/15 05:46:44;;;;;;;26.00;21.60;;;;;;;15.18;100.00;99014.41;109876;1247;62521;-80
2023/06/15 05:49:11;;;;;;;24.20;19.50;;;;;;;15.21;100.00;99012.76;109520;1247;58970;-79
2023/06/15 05:51:37;;;;;;;23.40;20.70;;;;;;;15.27;100.00;99016.53;109867;1247;58961;-79
2023/06/15 05:54:04;;;;;;;23.40;20.80;;;;;;;15.39;100.00;99018.89;109887;1247;59316;-79
2023/06/15 05:56:31;;;;;;;21.80;18.80;;;;;;;15.51;100.00;99021.75;109476;1247;59047;-78
2023/06/15 05:58:57;;;;;;;22.30;19.90;;;;;;;15.61;100.00;99024.52;109876;1247;64213;-80
2023/06/15 06:01:23;;;;;;;24.00;19.30;;;;;;;15.70;100.00;99021.55;109858;1247;58959;-79
2023/06/15 06:03:50;;;;;;;22.20;19.80;;;;;;;15.89;100.00;99020.66;109908;1247;59128;-80
2023/06/15 06:06:16;;;;;;;21.10;18.20;;;;;;;16.16;100.00;99023.02;109511;1247;66132;-78
2023/06/15 06:08:43;;;;;;;22.50;18.90;;;;;;;16.33;100.00;99028.77;109909;1247;59050;-79
2023/06/15 06:11:09;;;;;;;20.70;17.80;;;;;;;16.35;100.00;99031.39;109856;1247;58986;-80
2023/06/15 06:13:36;;;;;;;22.90;19.20;;;;;;;16.41;100.00;99031.41;109869;1247;59013;-79
2023/06/15 06:16:03;;;;;;;20.60;17.20;;;;;;;16.44;100.00;99032.19;109924;1247;58921;-80
2023/06/15 06:18:29;;;;;;;21.00;16.70;;;;;;;16.44;100.00;99036.35;109905;1247;67271;-80
2023/06/15 06:20:56;;;;;;;22.50;18.40;;;;;;;16.48;100.00;99036.69;109926;1247;60119;-80
2023/06/15 06:23:22;;;;;;;20.60;16.60;;;;;;;16.64;100.00;99037.08;109876;1247;62483;-79
2023/06/15 06:25:49;;;;;;;17.90;16.00;;;;;;;16.83;100.00;99039.75;109874;1247;59288;-79
2023/06/15 06:28:15;;;;;;;23.40;17.60;;;;;;;17.11;100.00;99039.15;109886;1249;59031;-80
2023/06/15 06:30:42;;;;;;;22.80;18.10;;;;;;;17.39;100.00;99040.16;109918;1247;65739;-79
2023/06/15 06:33:09;;;;;;;22.60;18.30;;;;;;;17.76;100.00;99043.68;109584;1247;59136;-78
2023/06/15 06:35:35;;;;;;;26.20;18.90;;;;;;;18.40;100.00;99046.38;109455;1247;63714;-78
2023/06/15 06:38:02;;;;;;;21.50;17.40;;;;;;;18.99;100.00;99047.02;109884;1247;58979;-80
2023/06/15 06:40:29;;;;;;;24.70;19.40;;;;;;;18.96;100.00;99049.02;109931;1247;58983;-80
2023/06/15 06:42:56;;;;;;;21.60;18.70;;;;;;;18.93;100.00;99052.40;109887;1247;66189;-80
2023/06/15 06:45:22;;;;;;;18.60;16.60;;;;;;;18.92;100.00;99055.33;109883;1247;59046;-79
2023/06/15 06:47:49;;;;;;;21.50;17.10;;;;;;;19.49;100.00;99054.38;109912;1247;59169;-79
2023/06/15 06:50:15;;;;;;;20.80;16.10;;;;;;;20.47;100.00;99055.73;109861;1247;59006;-77
2023/06/15 06:52:42;;;;;;;15.00;13.50;;;;;;;20.93;100.00;99058.86;109883;1247;58953;-78
2023/06/15 06:55:09;;;;;;;15.80;13.30;;;;;;;21.03;100.00;99056.10;109893;1247;66072;-79
2023/06/15 06:57:35;;;;;;;14.60;13.10;;;;;;;20.98;100.00;99054.71;109906;1247;60916;-78
2023/06/15 07:00:03;;;;;;;15.20;12.70;;;;;;;21.44;100.00;99054.92;109921;1247;62868;-78
2023/06/15 07:02:32;;;;;;;14.60;12.70;;;;;;;21.93;100.00;99053.39;109545;1247;59015;-80
2023/06/15 07:04:58;;;;;;;13.80;12.40;;;;;;;22.24;100.00;99049.55;109929;1247;58934;-79
2023/06/15 07:07:25;;;;;;;13.80;12.30;;;;;;;22.42;100.00;99048.14;109896;1247;64510;-79
2023/06/15 07:09:51;;;;;;;13.30;11.40;;;;;;;22.55;100.00;99045.49;109929;1247;58941;-78
2023/06/15 07:12:18;;;;;;;11.50;10.30;;;;;;;22.52;100.00;99044.26;109918;1247;64038;-79
2023/06/15 07:14:45;;;;;;;12.30;11.00;;;;;;;22.58;100.00;99038.89;109861;1247;58916;-80
2023/06/15 07:17:12;;;;;;;13.10;11.80;;;;;;;22.70;100.00;99035.15;109909;1247;59056;-80
2023/06/15 07:19:38;;;;;;;14.30;11.90;;;;;;;22.72;100.00;99035.10;109951;1247;66221;-79
2023/06/15 07:22:05;;;;;;;14.40;11.50;;;;;;;22.74;100.00;99028.09;109953;1247;59081;-79
2023/06/15 07:24:31;;;;;;;13.30;11.80;;;;;;;22.80;100.00;99018.85;109885;1247;64033;-79
2023/06/15 07:26:58;;;;;;;15.30;12.00;;;;;;;22.70;100.00;99021.54;109902;1247;59001;-79
2023/06/15 07:29:25;;;;;;;13.80;12.10;;;;;;;22.21;100.00;99024.65;109933;1247;58890;-78
2023/06/15 07:31:51;;;;;;;12.10;10.90;;;;;;;21.66;100.00;99021.92;109893;1247;66136;-77
2023/06/15 07:34:18;;;;;;;12.10;10.90;;;;;;;21.57;100.00;99026.11;109939;1247;59045;-80
2023/06/15 07:36:45;;;;;;;14.30;11.80;;;;;;;21.52;100.00;99025.42;109529;1247;59089;-77
2023/06/15 07:39:12;;;;;;;13.00;11.50;;;;;;;21.54;100.00;99024.49;109917;1247;59017;-78
2023/06/15 07:41:39;;;;;;;13.80;12.40;;;;;;;21.73;100.00;99024.86;109716;1247;59038;-80
2023/06/15 07:44:05;;;;;;;13.70;12.30;;;;;;;21.85;100.00;99017.54;109713;1247;64589;-80
2023/06/15 07:46:32;;;;;;;15.50;14.00;;;;;;;22.03;100.00;99016.55;109955;1247;59995;-79
2023/06/15 07:48:58;;;;;;;16.70;12.90;;;;;;;22.07;100.00;99018.81;109925;1247;59065;-78
2023/06/15 07:51:25;;;;;;;14.20;12.80;;;;;;;22.06;100.00;99014.44;109904;1247;59278;-78
2023/06/15 07:53:51;;;;;;;15.10;12.40;;;;;;;22.24;100.00;99010.01;109929;1247;58898;-80
2023/06/15 07:56:18;;;;;;;14.90;13.40;;;;;;;22.41;100.00;98998.72;109923;1247;64860;-79
2023/06/15 07:58:44;;;;;;;13.70;12.40;;;;;;;22.11;100.00;99001.21;109897;1247;59787;-78
2023/06/15 08:01:11;;;;;;;14.80;13.20;;;;;;;21.78;100.00;99005.84;109942;1247;64074;-79
2023/06/15 08:03:37;;;;;;;14.30;12.80;;;;;;;21.70;100.00;99006.71;109906;1247;58930;-79
2023/06/15 08:06:04;;;;;;;13.60;12.00;;;;;;;21.83;100.00;99003.90;109909;1247;58897;-79
2023/06/15 08:08:30;;;;;;;14.40;12.90;;;;;;;21.90;100.00;99005.58;109901;1247;65796;-79
2023/06/15 08:10:57;;;;;;;14.90;13.20;;;;;;;21.82;100.00;99005.95;109895;1247;59032;-79
2023/06/15 08:13:24;;;;;;;15.60;14.00;;;;;;;21.76;100.00;99006.52;109519;1247;59042;-79
2023/06/15 08:15:51;;;;;;;14.40;12.90;;;;;;;21.51;100.00;99011.45;109872;1247;59288;-81
2023/06/15 08:18:18;;;;;;;17.00;13.50;;;;;;;21.30;100.00;99015.08;109923;1247;59009;-78
2023/06/15 08:20:44;;;;;;;14.10;12.80;;;;;;;21.11;100.00;99019.63;109890;1247;64769;-80
2023/06/15 08:23:10;;;;;;;16.70;12.70;;;;;;;21.04;100.00;99022.53;109537;1247;59040;-78
2023/06/15 08:25:37;;;;;;;13.50;12.10;;;;;;;21.02;100.00;99023.02;109922;1247;59150;-80
2023/06/15 08:28:04;;;;;;;13.30;11.90;;;;;;;20.82;100.00;99025.63;109935;1247;58953;-77
2023/06/15 08:30:30;;;;;;;10.60;9.60;;;;;;;20.56;100.00;99029.46;109910;1247;59000;-79
2023/06/15 08:32:57;;;;;;;11.60;8.90;;;;;;;20.36;100.00;99030.70;109945;1247;66099;-79
2023/06/15 08:35:23;;;;;;;9.40;8.30;;;;;;;20.21;100.00;99030.79;109912;1247;59002;-80
2023/06/15 08:37:50;;;;;;;8.50;7.60;;;;;;;20.19;100.00;99030.82;109911;1247;64196;-79
2023/06/15 08:40:19;;;;;;;7.40;6.70;;;;;;;20.19;100.00;99031.42;109847;1247;59010;-78
2023/06/15 08:42:45;;;;;;;6.80;6.20;;;;;;;20.26;100.00;99030.26;109564;1247;59038;-79
2023/06/15 08:45:13;;;;;;;7.50;6.80;;;;;;;20.41;100.00;99030.02;109893;1247;64463;-79
2023/06/15 08:47:41;;;;;;;7.50;6.80;;;;;;;20.62;100.00;99033.68;109946;1247;58961;-77
2023/06/15 08:50:07;;;;;;;7.60;6.90;;;;;;;20.86;100.00;99031.30;109947;1247;64159;-78
2023/06/15 08:52:35;;;;;;;7.80;7.10;;;;;;;21.12;100.00;99028.94;109891;1250;59239;-76
2023/06/15 08:55:03;;;;;;;7.90;7.20;;;;;;;21.42;100.00;99032.36;109906;1247;58983;-80
2023/06/15 08:57:32;;;;;;;7.60;6.90;;;;;;;21.67;100.00;99034.80;109923;1247;64532;-80
2023/06/15 08:59:59;;;;;;;9.20;8.30;;;;;;;22.14;100.00;99034.50;109563;1247;59905;-77
2023/06/15 09:02:28;;;;;;;9.10;8.30;;;;;;;22.57;100.00;99032.61;109912;1247;62508;-79
2023/06/15 09:04:56;;;;;;;9.90;7.90;;;;;;;22.90;100.00;99030.41;109876;1247;59468;-79
2023/06/15 09:07:24;;;;;;;9.70;8.20;;;;;;;23.29;100.00;99029.27;109537;1247;59285;-80
2023/06/15 09:10:16;;;;;;;8.80;7.80;;;;;;;23.29;100.00;99030.77;109935;1247;65251;-79
2023/06/15 09:12:46;;;;;;;9.50;8.40;;;;;;;23.08;100.00;99029.29;109953;1247;59074;-79
2023/06/15 09:15:30;;;;;;;8.20;7.50;;;;;;;23.10;100.00;99027.89;109913;1247;63841;-79
2023/06/15 09:18:00;;;;;;;7.50;6.90;;;;;;;23.30;100.00;99026.19;109551;1247;59145;-80
2023/06/15 09:20:36;;;;;;;7.30;6.60;;;;;;;23.53;100.00;99024.38;109614;1247;59072;-77
2023/06/15 09:23:05;;;;;;;7.10;6.40;;;;;;;23.53;100.00;99027.48;109747;1247;66071;-80
2023/06/15 09:25:33;;;;;;;6.40;5.80;;;;;;;23.35;100.00;99029.11;109914;1247;59938;-79
2023/06/15 09:28:01;;;;;;;8.00;6.40;;;;;;;23.07;100.00;99028.67;109897;1247;62719;-79
2023/06/15 09:30:39;;;;;;;6.80;6.30;;;;;;;22.83;100.00;99024.58;109890;1247;59357;-80
2023/06/15 09:33:16;;;;;;;9.50;7.00;;;;;;;22.67;100.00;99023.72;109679;1247;59046;-77
2023/06/15 09:36:03;;;;;;;7.30;6.60;;;;;;;22.50;100.00;99022.46;109658;1248;64914;-79
2023/06/15 09:38:42;;;;;;;7.00;6.30;;;;;;;22.30;100.00;99022.94;109934;1247;61420;-79
2023/06/15 09:41:09;;;;;;;7.30;6.50;;;;;;;22.16;100.00;99025.92;109882;1247;64358;-79
2023/06/15 09:43:39;;;;;;;7.20;6.50;;;;;;;22.12;100.00;99021.36;109921;1247;58964;-78
2023/06/15 09:46:13;;;;;;;6.50;6.00;;;;;;;22.02;100.00;99024.84;109878;1247;59023;-79
2023/06/15 09:48:40;;;;;;;8.10;6.70;;;;;;;22.00;100.00;99023.95;109917;1247;64805;-79
2023/06/15 09:51:07;;;;;;;7.50;6.70;;;;;;;22.09;100.00;99020.73;109950;1247;60094;-79
2023/06/15 09:53:33;;;;;;;6.00;5.50;;;;;;;22.19;100.00;99017.52;109882;1247;64133;-80
2023/06/15 09:56:01;;;;;;;8.30;6.30;;;;;;;22.37;100.00;99018.16;109884;1247;59332;-80
2023/06/15 09:58:27;;;;;;;7.20;6.40;;;;;;;22.47;100.00;99016.07;109925;1247;58995;-80
2023/06/15 10:00:57;;;;;;;6.70;6.10;;;;;;;22.55;100.00;99019.86;109921;1247;65841;-80
2023/06/15 10:03:27;;;;;;;13.30;6.80;;;;;;;22.65;100.00;99016.55;109939;1247;58921;-79
2023/06/15 10:05:58;;;;;;;6.60;5.90;;;;;;;22.98;100.00;99010.98;109901;1247;64646;-76
2023/06/15 10:08:26;;;;;;;7.00;6.20;;;;;;;23.54;100.00;99006.35;109865;1247;58950;-79
2023/06/15 10:10:58;;;;;;;6.70;6.20;;;;;;;24.04;100.00;99000.54;109869;1247;58978;-78
2023/06/15 10:13:46;;;;;;;6.70;6.20;;;;;;;24.46;100.00;99002.11;109920;1247;66159;-80
2023/06/15 10:16:15;;;;;;;7.50;5.50;;;;;;;24.85;100.00;99001.58;109937;1247;60147;-80
2023/06/15 10:18:44;;;;;;;8.30;7.40;;;;;;;25.28;100.00;98996.64;109857;1247;64078;-78
2023/06/15 10:21:15;;;;;;;6.90;6.20;;;;;;;25.50;94.76;98997.18;109721;1247;58936;-80
2023/06/15 10:23:44;;;;;;;7.20;6.60;;;;;;;25.72;89.47;98997.02;109665;1249;59069;-79
2023/06/15 10:26:11;;;;;;;6.90;6.30;;;;;;;25.93;87.01;98992.62;109814;1250;65963;-79
2023/06/15 10:28:44;;;;;;;7.10;6.40;;;;;;;26.01;80.75;98994.73;109834;1249;60261;-80
2023/06/15 10:31:25;;;;;;;9.10;7.80;;;;;;;25.96;74.45;98996.54;109786;1249;63741;-79
2023/06/15 10:34:01;;;;;;;7.10;6.50;;;;;;;26.02;68.88;98993.50;109771;1248;58941;-80
2023/06/15 10:36:29;;;;;;;6.90;6.20;;;;;;;25.94;67.37;98992.91;109801;1249;59045;-80
2023/06/15 10:39:19;;;;;;;6.40;5.90;;;;;;;25.66;63.72;98995.83;109770;1249;64649;-80
2023/06/15 10:41:45;;;;;;;;;;;;;;;25.32;62.85;98992.30;109835;1249;59997;-78
2023/06/15 10:44:15;;;;;;;7.60;6.60;;;;;;;24.92;62.63;98986.85;109739;1249;59033;-82
2023/06/15 10:46:42;;;;;;;7.70;5.90;;;;;;;24.85;62.95;98982.04;109784;1249;58976;-78
2023/06/15 10:49:10;;;;;;;7.80;6.90;;;;;;;24.85;62.75;98979.64;109786;1249;59013;-75
2023/06/15 10:51:41;;;;;;;8.00;6.80;;;;;;;24.92;62.56;98981.81;109786;1249;65173;-78
2023/06/15 10:54:22;;;;;;;7.30;6.50;;;;;;;24.99;62.65;98979.33;109784;1249;59358;-79
2023/06/15 10:56:50;;;;;;;7.90;6.30;;;;;;;25.15;62.79;98977.23;109784;1249;63907;-78
2023/06/15 10:59:36;;;;;;;7.40;6.60;;;;;;;25.39;63.29;98972.34;109776;1249;58951;-80
2023/06/15 11:02:28;;;;;;;7.30;6.50;;;;;;;25.68;62.97;98967.39;109740;1249;59627;-80
2023/06/15 11:05:17;;;;;;;7.90;6.50;;;;;;;25.81;61.89;98967.27;109807;1252;66894;-82
2023/06/15 11:07:48;;;;;;;7.20;6.50;;;;;;;25.81;61.58;98966.44;109781;1249;59812;-79
2023/06/15 11:10:27;;;;;;;6.90;6.30;;;;;;;25.94;62.23;98966.48;109764;1248;62824;-79
2023/06/15 11:13:02;;;;;;;7.00;6.40;;;;;;;26.25;61.26;98962.52;109768;1248;58957;-81